sensor_id;sensor_type;location;lat;lon;timestamp;pressure;altitude;pressure_sealevel;temperature;humidity
65376;BME280;51976;47.332;9.404;2023-02-16T00:00:46;93705.19;;;2.13;59.60
65376;BME280;51976;47.332;9.404;2023-02-16T00:03:17;93713.53;;;2.23;59.41
65376;BME280;51976;47.332;9.404;2023-02-16T00:05:43;93693.16;;;1.97;59.69
65376;BME280;51976;47.332;9.404;2023-02-16T00:08:09;93687.91;;;1.64;60.36
65376;BME280;51976;47.332;9.404;2023-02-16T00:10:36;93702.41;;;1.68;60.56
65376;BME280;51976;47.332;9.404;2023-02-16T00:13:20;93706.50;;;1.78;60.62
65376;BME280;51976;47.332;9.404;2023-02-16T00:16:14;93709.38;;;1.76;60.99
65376;BME280;51976;47.332;9.404;2023-02-16T00:18:40;93712.03;;;1.76;60.36
65376;BME280;51976;47.332;9.404;2023-02-16T00:21:07;93707.13;;;1.73;60.43
65376;BME280;51976;47.332;9.404;2023-02-16T00:23:32;93711.44;;;1.54;61.08
65376;BME280;51976;47.332;9.404;2023-02-16T00:25:57;93700.19;;;1.39;61.54
65376;BME280;51976;47.332;9.404;2023-02-16T00:28:23;93693.22;;;1.78;60.30
65376;BME280;51976;47.332;9.404;2023-02-16T00:30:48;93696.53;;;1.60;61.08
65376;BME280;51976;47.332;9.404;2023-02-16T00:33:16;93695.50;;;1.54;61.15
65376;BME280;51976;47.332;9.404;2023-02-16T00:35:42;93687.88;;;1.84;60.50
65376;BME280;51976;47.332;9.404;2023-02-16T00:38:09;93693.97;;;1.98;60.22
65376;BME280;51976;47.332;9.404;2023-02-16T00:40:34;93701.81;;;1.73;60.30
65376;BME280;51976;47.332;9.404;2023-02-16T00:42:59;93693.41;;;1.89;60.04
65376;BME280;51976;47.332;9.404;2023-02-16T00:45:25;93672.34;;;1.88;60.20
65376;BME280;51976;47.332;9.404;2023-02-16T00:47:51;93692.91;;;2.12;59.46
65376;BME280;51976;47.332;9.404;2023-02-16T00:50:26;93694.22;;;1.83;60.05
65376;BME280;51976;47.332;9.404;2023-02-16T00:52:51;93702.00;;;1.91;59.86
65376;BME280;51976;47.332;9.404;2023-02-16T00:55:19;93687.06;;;1.84;60.05
65376;BME280;51976;47.332;9.404;2023-02-16T00:57:53;93688.72;;;1.78;60.28
65376;BME280;51976;47.332;9.404;2023-02-16T01:00:38;93694.44;;;1.82;60.70
65376;BME280;51976;47.332;9.404;2023-02-16T01:03:08;93613.22;;;1.01;60.64
65376;BME280;51976;47.332;9.404;2023-02-16T01:05:34;93694.84;;;1.65;60.73
65376;BME280;51976;47.332;9.404;2023-02-16T01:08:01;93684.63;;;1.69;60.19
65376;BME280;51976;47.332;9.404;2023-02-16T01:10:47;93673.19;;;1.68;60.15
65376;BME280;51976;47.332;9.404;2023-02-16T01:13:40;93693.63;;;1.81;60.26
65376;BME280;51976;47.332;9.404;2023-02-16T01:16:19;93693.00;;;1.73;60.16
65376;BME280;51976;47.332;9.404;2023-02-16T01:18:46;93689.16;;;1.62;60.45
65376;BME280;51976;47.332;9.404;2023-02-16T01:21:12;93688.72;;;1.72;60.32
65376;BME280;51976;47.332;9.404;2023-02-16T01:23:38;93682.63;;;1.58;60.43
65376;BME280;51976;47.332;9.404;2023-02-16T01:26:05;93687.94;;;1.38;60.83
65376;BME280;51976;47.332;9.404;2023-02-16T01:28:34;93694.88;;;1.59;60.90
65376;BME280;51976;47.332;9.404;2023-02-16T01:31:00;93663.78;;;1.66;59.82
65376;BME280;51976;47.332;9.404;2023-02-16T01:33:26;93696.31;;;1.55;61.03
65376;BME280;51976;47.332;9.404;2023-02-16T01:35:52;93688.34;;;1.48;61.10
65376;BME280;51976;47.332;9.404;2023-02-16T01:38:22;93691.22;;;1.60;60.86
65376;BME280;51976;47.332;9.404;2023-02-16T01:40:56;93677.81;;;1.93;60.23
65376;BME280;51976;47.332;9.404;2023-02-16T01:43:43;93680.88;;;1.96;59.49
65376;BME280;51976;47.332;9.404;2023-02-16T01:46:27;93671.63;;;1.28;61.01
65376;BME280;51976;47.332;9.404;2023-02-16T01:48:53;93689.56;;;1.39;61.57
65376;BME280;51976;47.332;9.404;2023-02-16T01:51:25;93678.97;;;1.19;61.81
65376;BME280;51976;47.332;9.404;2023-02-16T01:54:09;93686.94;;;1.26;61.59
65376;BME280;51976;47.332;9.404;2023-02-16T01:56:47;93666.72;;;1.12;61.73
65376;BME280;51976;47.332;9.404;2023-02-16T01:59:24;93684.25;;;1.39;61.53
65376;BME280;51976;47.332;9.404;2023-02-16T02:02:03;93693.47;;;1.56;61.24
65376;BME280;51976;47.332;9.404;2023-02-16T02:04:45;93688.59;;;1.33;61.32
65376;BME280;51976;47.332;9.404;2023-02-16T02:07:50;93688.56;;;1.40;61.69
65376;BME280;51976;47.332;9.404;2023-02-16T02:10:36;93677.44;;;0.38;64.12
65376;BME280;51976;47.332;9.404;2023-02-16T02:13:28;93688.31;;;0.62;63.67
65376;BME280;51976;47.332;9.404;2023-02-16T02:15:57;93682.28;;;0.21;64.87
65376;BME280;51976;47.332;9.404;2023-02-16T02:18:23;93669.97;;;0.74;63.33
65376;BME280;51976;47.332;9.404;2023-02-16T02:21:03;93684.09;;;1.08;62.44
65376;BME280;51976;47.332;9.404;2023-02-16T02:24:41;93669.38;;;1.25;61.53
65376;BME280;51976;47.332;9.404;2023-02-16T02:27:14;93667.97;;;1.09;62.43
65376;BME280;51976;47.332;9.404;2023-02-16T02:30:09;93668.34;;;1.26;62.31
65376;BME280;51976;47.332;9.404;2023-02-16T02:33:16;93627.47;;;0.41;63.27
65376;BME280;51976;47.332;9.404;2023-02-16T02:36:23;93657.13;;;1.04;62.56
65376;BME280;51976;47.332;9.404;2023-02-16T02:39:18;93657.91;;;1.11;62.72
65376;BME280;51976;47.332;9.404;2023-02-16T02:42:04;93637.69;;;1.10;62.51
65376;BME280;51976;47.332;9.404;2023-02-16T02:44:39;93652.00;;;1.29;62.31
65376;BME280;51976;47.332;9.404;2023-02-16T02:47:06;93664.47;;;1.22;62.33
65376;BME280;51976;47.332;9.404;2023-02-16T02:49:32;93660.34;;;1.39;61.92
65376;BME280;51976;47.332;9.404;2023-02-16T02:51:57;93662.66;;;1.09;62.70
65376;BME280;51976;47.332;9.404;2023-02-16T02:54:30;93660.59;;;0.91;63.34
65376;BME280;51976;47.332;9.404;2023-02-16T02:57:28;93662.22;;;1.12;62.39
65376;BME280;51976;47.332;9.404;2023-02-16T03:00:23;93652.81;;;1.10;62.13
65376;BME280;51976;47.332;9.404;2023-02-16T03:03:20;93670.78;;;1.47;61.19
65376;BME280;51976;47.332;9.404;2023-02-16T03:05:51;93662.41;;;1.11;61.88
65376;BME280;51976;47.332;9.404;2023-02-16T03:08:23;93633.00;;;1.19;61.02
65376;BME280;51976;47.332;9.404;2023-02-16T03:11:01;93669.16;;;1.13;61.99
65376;BME280;51976;47.332;9.404;2023-02-16T03:13:56;93669.97;;;1.14;61.97
65376;BME280;51976;47.332;9.404;2023-02-16T03:16:26;93662.00;;;1.27;61.55
65376;BME280;51976;47.332;9.404;2023-02-16T03:18:55;93678.34;;;0.84;62.78
65376;BME280;51976;47.332;9.404;2023-02-16T03:21:41;93656.94;;;1.06;62.23
65376;BME280;51976;47.332;9.404;2023-02-16T03:24:29;93684.28;;;0.93;62.32
65376;BME280;51976;47.332;9.404;2023-02-16T03:27:21;93682.22;;;0.88;63.27
65376;BME280;51976;47.332;9.404;2023-02-16T03:30:09;93674.47;;;1.20;63.26
65376;BME280;51976;47.332;9.404;2023-02-16T03:32:36;93683.06;;;1.09;62.75
65376;BME280;51976;47.332;9.404;2023-02-16T03:35:02;93659.59;;;1.06;62.52
65376;BME280;51976;47.332;9.404;2023-02-16T03:37:27;93681.63;;;0.99;62.73
65376;BME280;51976;47.332;9.404;2023-02-16T03:39:53;93675.09;;;1.02;62.54
65376;BME280;51976;47.332;9.404;2023-02-16T03:42:38;93683.06;;;1.02;62.72
65376;BME280;51976;47.332;9.404;2023-02-16T03:45:04;93683.25;;;0.87;63.14
65376;BME280;51976;47.332;9.404;2023-02-16T03:47:29;93681.81;;;0.85;63.06
65376;BME280;51976;47.332;9.404;2023-02-16T03:49:55;93671.56;;;0.49;63.97
65376;BME280;51976;47.332;9.404;2023-02-16T03:52:20;93672.44;;;1.02;62.76
65376;BME280;51976;47.332;9.404;2023-02-16T03:54:45;93675.28;;;0.74;63.49
65376;BME280;51976;47.332;9.404;2023-02-16T03:57:11;93677.97;;;1.07;62.56
65376;BME280;51976;47.332;9.404;2023-02-16T03:59:36;93682.25;;;1.01;62.72
65376;BME280;51976;47.332;9.404;2023-02-16T04:02:01;93657.94;;;1.05;62.34
65376;BME280;51976;47.332;9.404;2023-02-16T04:04:27;93666.28;;;0.88;62.72
65376;BME280;51976;47.332;9.404;2023-02-16T04:06:52;93662.84;;;0.94;62.50
65376;BME280;51976;47.332;9.404;2023-02-16T04:09:18;93674.06;;;1.10;63.60
65376;BME280;51976;47.332;9.404;2023-02-16T04:11:43;93666.09;;;0.90;62.97
65376;BME280;51976;47.332;9.404;2023-02-16T04:14:28;93673.81;;;0.58;63.63
65376;BME280;51976;47.332;9.404;2023-02-16T04:16:54;93669.38;;;0.92;62.65
65376;BME280;51976;47.332;9.404;2023-02-16T04:19:21;93676.28;;;0.86;62.59
65376;BME280;51976;47.332;9.404;2023-02-16T04:21:49;93670.38;;;0.84;62.71
65376;BME280;51976;47.332;9.404;2023-02-16T04:24:14;93687.34;;;1.03;62.60
65376;BME280;51976;47.332;9.404;2023-02-16T04:26:39;93666.91;;;0.90;62.78
65376;BME280;51976;47.332;9.404;2023-02-16T04:29:05;93658.75;;;1.25;61.78
65376;BME280;51976;47.332;9.404;2023-02-16T04:31:30;93678.50;;;0.56;63.31
65376;BME280;51976;47.332;9.404;2023-02-16T04:33:55;93665.88;;;0.65;63.47
65376;BME280;51976;47.332;9.404;2023-02-16T04:36:21;93690.47;;;0.26;64.58
65376;BME280;51976;47.332;9.404;2023-02-16T04:38:46;93660.09;;;0.42;63.59
65376;BME280;51976;47.332;9.404;2023-02-16T04:41:12;93674.84;;;0.64;63.26
65376;BME280;51976;47.332;9.404;2023-02-16T04:43:37;93693.63;;;0.82;63.10
65376;BME280;51976;47.332;9.404;2023-02-16T04:46:02;93673.81;;;0.65;63.02
65376;BME280;51976;47.332;9.404;2023-02-16T04:48:28;93678.88;;;0.40;63.78
65376;BME280;51976;47.332;9.404;2023-02-16T04:50:53;93675.84;;;0.50;63.53
65376;BME280;51976;47.332;9.404;2023-02-16T04:53:18;93686.94;;;0.99;62.40
65376;BME280;51976;47.332;9.404;2023-02-16T04:55:48;93697.34;;;1.14;62.29
65376;BME280;51976;47.332;9.404;2023-02-16T04:58:14;93671.00;;;0.73;62.81
65376;BME280;51976;47.332;9.404;2023-02-16T05:00:40;93675.66;;;0.64;63.04
65376;BME280;51976;47.332;9.404;2023-02-16T05:03:06;93693.84;;;0.74;63.31
65376;BME280;51976;47.332;9.404;2023-02-16T05:05:31;93692.03;;;0.88;63.44
65376;BME280;51976;47.332;9.404;2023-02-16T05:07:57;93691.69;;;0.23;64.41
65376;BME280;51976;47.332;9.404;2023-02-16T05:10:23;93691.56;;;0.58;64.13
65376;BME280;51976;47.332;9.404;2023-02-16T05:12:48;93694.69;;;0.88;63.60
65376;BME280;51976;47.332;9.404;2023-02-16T05:15:33;93680.72;;;0.40;64.28
65376;BME280;51976;47.332;9.404;2023-02-16T05:17:59;93704.84;;;0.51;64.14
65376;BME280;51976;47.332;9.404;2023-02-16T05:20:24;93697.00;;;0.23;64.76
65376;BME280;51976;47.332;9.404;2023-02-16T05:23:09;93701.28;;;0.31;64.06
65376;BME280;51976;47.332;9.404;2023-02-16T05:25:35;93712.66;;;0.18;64.92
65376;BME280;51976;47.332;9.404;2023-02-16T05:28:00;93702.78;;;0.53;63.79
65376;BME280;51976;47.332;9.404;2023-02-16T05:30:25;93712.66;;;0.79;63.24
65376;BME280;51976;47.332;9.404;2023-02-16T05:32:51;93706.31;;;0.93;62.84
65376;BME280;51976;47.332;9.404;2023-02-16T05:35:16;93713.00;;;0.50;63.88
65376;BME280;51976;47.332;9.404;2023-02-16T05:37:41;93721.50;;;0.39;64.37
65376;BME280;51976;47.332;9.404;2023-02-16T05:40:07;93708.13;;;0.66;63.97
65376;BME280;51976;47.332;9.404;2023-02-16T05:42:33;93716.81;;;0.41;64.28
65376;BME280;51976;47.332;9.404;2023-02-16T05:44:58;93711.19;;;0.70;63.61
65376;BME280;51976;47.332;9.404;2023-02-16T05:47:24;93703.34;;;0.36;63.99
65376;BME280;51976;47.332;9.404;2023-02-16T05:49:49;93715.25;;;0.53;63.85
65376;BME280;51976;47.332;9.404;2023-02-16T05:52:14;93723.81;;;0.61;63.91
65376;BME280;51976;47.332;9.404;2023-02-16T05:54:40;93709.41;;;0.16;65.00
65376;BME280;51976;47.332;9.404;2023-02-16T05:57:05;93722.78;;;0.56;63.80
65376;BME280;51976;47.332;9.404;2023-02-16T05:59:31;93676.03;;;0.42;63.64
65376;BME280;51976;47.332;9.404;2023-02-16T06:01:56;93726.31;;;0.76;63.34
65376;BME280;51976;47.332;9.404;2023-02-16T06:04:22;93684.03;;;0.61;63.67
65376;BME280;51976;47.332;9.404;2023-02-16T06:06:47;93736.38;;;1.00;63.10
65376;BME280;51976;47.332;9.404;2023-02-16T06:09:13;93733.88;;;0.79;63.19
65376;BME280;51976;47.332;9.404;2023-02-16T06:11:38;93741.78;;;0.59;63.59
65376;BME280;51976;47.332;9.404;2023-02-16T06:14:09;93740.63;;;0.82;63.43
65376;BME280;51976;47.332;9.404;2023-02-16T06:16:37;93737.56;;;0.78;63.16
65376;BME280;51976;47.332;9.404;2023-02-16T06:19:03;93747.34;;;0.84;62.97
65376;BME280;51976;47.332;9.404;2023-02-16T06:21:29;93745.72;;;0.77;62.99
65376;BME280;51976;47.332;9.404;2023-02-16T06:23:55;93747.34;;;0.78;62.92
65376;BME280;51976;47.332;9.404;2023-02-16T06:26:20;93746.69;;;0.62;63.54
65376;BME280;51976;47.332;9.404;2023-02-16T06:28:46;93750.81;;;0.85;62.84
65376;BME280;51976;47.332;9.404;2023-02-16T06:31:11;93744.31;;;0.94;63.35
65376;BME280;51976;47.332;9.404;2023-02-16T06:33:37;93735.28;;;0.68;63.49
65376;BME280;51976;47.332;9.404;2023-02-16T06:36:02;93733.00;;;0.65;63.56
65376;BME280;51976;47.332;9.404;2023-02-16T06:38:28;93760.16;;;0.61;63.96
65376;BME280;51976;47.332;9.404;2023-02-16T06:40:53;93762.19;;;0.59;64.43
65376;BME280;51976;47.332;9.404;2023-02-16T06:43:19;93757.91;;;0.64;63.84
65376;BME280;51976;47.332;9.404;2023-02-16T06:45:45;93751.69;;;0.38;64.68
65376;BME280;51976;47.332;9.404;2023-02-16T06:48:11;93748.09;;;0.58;63.85
65376;BME280;51976;47.332;9.404;2023-02-16T06:50:36;93737.34;;;0.86;63.54
65376;BME280;51976;47.332;9.404;2023-02-16T06:53:01;93751.06;;;0.96;62.45
65376;BME280;51976;47.332;9.404;2023-02-16T06:55:27;93768.84;;;1.02;62.64
65376;BME280;51976;47.332;9.404;2023-02-16T06:57:53;93753.09;;;0.94;62.91
65376;BME280;51976;47.332;9.404;2023-02-16T07:00:18;93761.72;;;0.42;64.01
65376;BME280;51976;47.332;9.404;2023-02-16T07:02:43;93765.66;;;0.59;63.91
65376;BME280;51976;47.332;9.404;2023-02-16T07:05:10;93766.16;;;0.96;62.77
65376;BME280;51976;47.332;9.404;2023-02-16T07:07:36;93761.88;;;0.95;62.55
65376;BME280;51976;47.332;9.404;2023-02-16T07:10:01;93772.47;;;0.82;62.87
65376;BME280;51976;47.332;9.404;2023-02-16T07:12:27;93776.97;;;0.88;62.70
65376;BME280;51976;47.332;9.404;2023-02-16T07:14:52;93764.31;;;0.90;62.56
65376;BME280;51976;47.332;9.404;2023-02-16T07:17:18;93766.56;;;0.93;63.17
65376;BME280;51976;47.332;9.404;2023-02-16T07:19:43;93756.56;;;0.95;62.51
65376;BME280;51976;47.332;9.404;2023-02-16T07:22:08;93777.84;;;1.21;61.91
65376;BME280;51976;47.332;9.404;2023-02-16T07:24:34;93773.38;;;1.48;61.19
65376;BME280;51976;47.332;9.404;2023-02-16T07:26:59;93778.88;;;1.27;61.54
65376;BME280;51976;47.332;9.404;2023-02-16T07:29:25;93787.88;;;1.26;62.13
65376;BME280;51976;47.332;9.404;2023-02-16T07:31:50;93787.69;;;1.34;61.70
65376;BME280;51976;47.332;9.404;2023-02-16T07:34:16;93769.06;;;1.08;62.29
65376;BME280;51976;47.332;9.404;2023-02-16T07:36:41;93778.66;;;1.22;62.19
65376;BME280;51976;47.332;9.404;2023-02-16T07:39:08;93767.56;;;0.85;63.09
65376;BME280;51976;47.332;9.404;2023-02-16T07:41:33;93788.25;;;1.16;62.43
65376;BME280;51976;47.332;9.404;2023-02-16T07:43:59;93783.56;;;1.38;62.06
65376;BME280;51976;47.332;9.404;2023-02-16T07:46:25;93787.25;;;1.44;62.19
65376;BME280;51976;47.332;9.404;2023-02-16T07:48:50;93790.75;;;1.51;61.93
65376;BME280;51976;47.332;9.404;2023-02-16T07:51:23;93785.22;;;1.72;62.20
65376;BME280;51976;47.332;9.404;2023-02-16T07:53:48;93766.41;;;1.41;61.46
65376;BME280;51976;47.332;9.404;2023-02-16T07:56:25;93784.78;;;1.95;60.63
65376;BME280;51976;47.332;9.404;2023-02-16T07:58:51;93799.94;;;1.68;60.93
65376;BME280;51976;47.332;9.404;2023-02-16T08:01:17;93801.16;;;2.05;60.99
65376;BME280;51976;47.332;9.404;2023-02-16T08:03:43;93795.00;;;2.18;59.71
65376;BME280;51976;47.332;9.404;2023-02-16T08:06:08;93798.66;;;2.23;60.00
65376;BME280;51976;47.332;9.404;2023-02-16T08:08:35;93796.53;;;2.52;59.37
65376;BME280;51976;47.332;9.404;2023-02-16T08:11:09;93801.41;;;2.68;60.36
65376;BME280;51976;47.332;9.404;2023-02-16T08:13:34;93790.53;;;2.69;58.91
65376;BME280;51976;47.332;9.404;2023-02-16T08:16:00;93785.50;;;2.99;58.24
65376;BME280;51976;47.332;9.404;2023-02-16T08:18:25;93786.81;;;3.22;59.34
65376;BME280;51976;47.332;9.404;2023-02-16T08:20:51;93773.38;;;3.35;58.38
65376;BME280;51976;47.332;9.404;2023-02-16T08:23:16;93782.16;;;3.42;56.83
65376;BME280;51976;47.332;9.404;2023-02-16T08:25:41;93780.91;;;3.69;56.95
65376;BME280;51976;47.332;9.404;2023-02-16T08:28:08;93775.94;;;3.80;56.96
65376;BME280;51976;47.332;9.404;2023-02-16T08:30:33;93777.66;;;3.92;56.97
65376;BME280;51976;47.332;9.404;2023-02-16T08:33:00;93773.13;;;3.93;56.68
65376;BME280;51976;47.332;9.404;2023-02-16T08:35:28;93760.72;;;4.05;56.45
65376;BME280;51976;47.332;9.404;2023-02-16T08:37:57;93757.31;;;4.16;56.58
65376;BME280;51976;47.332;9.404;2023-02-16T08:40:23;93756.44;;;4.40;55.65
65376;BME280;51976;47.332;9.404;2023-02-16T08:42:49;93761.50;;;4.49;54.79
65376;BME280;51976;47.332;9.404;2023-02-16T08:45:15;93768.41;;;4.56;54.75
65376;BME280;51976;47.332;9.404;2023-02-16T08:47:40;93768.75;;;4.78;54.89
65376;BME280;51976;47.332;9.404;2023-02-16T08:50:06;93762.00;;;4.75;54.39
65376;BME280;51976;47.332;9.404;2023-02-16T08:52:31;93773.94;;;5.21;52.68
65376;BME280;51976;47.332;9.404;2023-02-16T08:54:57;93762.13;;;5.29;52.32
65376;BME280;51976;47.332;9.404;2023-02-16T08:57:22;93751.47;;;5.10;52.03
65376;BME280;51976;47.332;9.404;2023-02-16T08:59:48;93765.25;;;5.26;51.63
65376;BME280;51976;47.332;9.404;2023-02-16T09:02:33;93748.16;;;4.97;51.10
65376;BME280;51976;47.332;9.404;2023-02-16T09:04:58;93761.34;;;5.10;50.96
65376;BME280;51976;47.332;9.404;2023-02-16T09:07:24;93761.94;;;5.42;50.02
65376;BME280;51976;47.332;9.404;2023-02-16T09:09:49;93751.84;;;5.44;49.71
65376;BME280;51976;47.332;9.404;2023-02-16T09:12:15;93768.06;;;5.84;49.81
65376;BME280;51976;47.332;9.404;2023-02-16T09:14:40;93767.72;;;5.81;49.31
65376;BME280;51976;47.332;9.404;2023-02-16T09:17:06;93759.91;;;5.67;49.01
65376;BME280;51976;47.332;9.404;2023-02-16T09:19:31;93753.00;;;6.01;50.39
65376;BME280;51976;47.332;9.404;2023-02-16T09:21:57;93744.38;;;6.11;49.12
65376;BME280;51976;47.332;9.404;2023-02-16T09:24:22;93759.63;;;6.45;48.71
65376;BME280;51976;47.332;9.404;2023-02-16T09:26:48;93748.53;;;6.65;49.23
65376;BME280;51976;47.332;9.404;2023-02-16T09:29:14;93762.56;;;6.84;47.94
65376;BME280;51976;47.332;9.404;2023-02-16T09:31:40;93758.19;;;8.64;52.17
65376;BME280;51976;47.332;9.404;2023-02-16T09:34:15;93754.16;;;9.05;51.51
65376;BME280;51976;47.332;9.404;2023-02-16T09:36:42;93760.34;;;9.05;51.19
65376;BME280;51976;47.332;9.404;2023-02-16T09:39:07;93759.28;;;9.28;51.20
65376;BME280;51976;47.332;9.404;2023-02-16T09:42:05;93753.13;;;9.33;50.49
65376;BME280;51976;47.332;9.404;2023-02-16T09:45:19;93733.41;;;9.49;49.83
65376;BME280;51976;47.332;9.404;2023-02-16T09:47:27;93737.25;;;9.58;49.80
65376;BME280;51976;47.332;9.404;2023-02-16T09:49:56;93743.25;;;9.65;48.10
65376;BME280;51976;47.332;9.404;2023-02-16T09:52:37;93718.13;;;9.28;49.02
65376;BME280;51976;47.332;9.404;2023-02-16T09:55:11;93737.72;;;9.77;48.18
65376;BME280;51976;47.332;9.404;2023-02-16T10:00:44;93745.03;;;10.13;48.64
65376;BME280;51976;47.332;9.404;2023-02-16T10:03:34;93735.78;;;10.31;47.95
65376;BME280;51976;47.332;9.404;2023-02-16T10:06:26;93737.44;;;10.37;47.50
65376;BME280;51976;47.332;9.404;2023-02-16T10:08:58;93748.94;;;10.65;46.91
65376;BME280;51976;47.332;9.404;2023-02-16T10:11:35;93714.88;;;10.48;47.04
65376;BME280;51976;47.332;9.404;2023-02-16T10:14:10;93690.81;;;10.42;46.05
65376;BME280;51976;47.332;9.404;2023-02-16T10:16:45;93694.47;;;10.63;45.93
65376;BME280;51976;47.332;9.404;2023-02-16T10:19:20;93751.78;;;10.95;44.55
65376;BME280;51976;47.332;9.404;2023-02-16T10:21:50;93745.38;;;11.06;44.76
65376;BME280;51976;47.332;9.404;2023-02-16T10:24:17;93747.78;;;11.03;43.88
65376;BME280;51976;47.332;9.404;2023-02-16T10:26:45;93730.75;;;10.97;43.67
65376;BME280;51976;47.332;9.404;2023-02-16T10:29:14;93726.00;;;11.14;44.54
65376;BME280;51976;47.332;9.404;2023-02-16T10:31:46;93750.88;;;11.32;44.26
65376;BME280;51976;47.332;9.404;2023-02-16T10:34:48;93750.94;;;11.47;43.97
65376;BME280;51976;47.332;9.404;2023-02-16T10:37:29;93715.28;;;11.40;43.72
65376;BME280;51976;47.332;9.404;2023-02-16T10:40:17;93725.00;;;9.99;41.87
65376;BME280;51976;47.332;9.404;2023-02-16T10:43:05;93729.31;;;11.37;43.78
65376;BME280;51976;47.332;9.404;2023-02-16T10:45:43;93723.81;;;11.11;39.14
65376;BME280;51976;47.332;9.404;2023-02-16T10:48:15;93722.88;;;11.58;43.63
65376;BME280;51976;47.332;9.404;2023-02-16T10:51:02;93719.66;;;11.66;42.22
65376;BME280;51976;47.332;9.404;2023-02-16T10:53:42;93704.06;;;11.89;42.42
65376;BME280;51976;47.332;9.404;2023-02-16T10:56:57;93714.88;;;11.89;42.60
65376;BME280;51976;47.332;9.404;2023-02-16T10:59:27;93713.25;;;12.13;42.03
65376;BME280;51976;47.332;9.404;2023-02-16T11:01:57;93694.88;;;11.95;41.76
65376;BME280;51976;47.332;9.404;2023-02-16T11:04:39;93711.13;;;11.07;42.28
65376;BME280;51976;47.332;9.404;2023-02-16T11:07:13;93704.31;;;11.87;41.56
65376;BME280;51976;47.332;9.404;2023-02-16T11:09:40;93711.63;;;12.22;41.95
65376;BME280;51976;47.332;9.404;2023-02-16T11:12:33;93677.84;;;11.84;40.00
65376;BME280;51976;47.332;9.404;2023-02-16T11:15:23;93714.63;;;11.07;38.14
65376;BME280;51976;47.332;9.404;2023-02-16T11:17:58;93702.44;;;12.08;41.03
65376;BME280;51976;47.332;9.404;2023-02-16T11:20:29;93698.94;;;12.02;38.48
65376;BME280;51976;47.332;9.404;2023-02-16T11:23:13;93688.53;;;10.61;36.81
65376;BME280;51976;47.332;9.404;2023-02-16T11:25:39;93695.44;;;10.46;37.04
65376;BME280;51976;47.332;9.404;2023-02-16T11:28:05;93676.84;;;11.07;38.11
65376;BME280;51976;47.332;9.404;2023-02-16T11:30:37;93680.22;;;10.72;36.95
65376;BME280;51976;47.332;9.404;2023-02-16T11:33:20;93690.28;;;10.97;36.59
65376;BME280;51976;47.332;9.404;2023-02-16T11:35:46;93668.66;;;11.85;40.42
65376;BME280;51976;47.332;9.404;2023-02-16T11:38:31;93671.91;;;12.23;39.87
65376;BME280;51976;47.332;9.404;2023-02-16T11:40:58;93659.44;;;12.32;39.72
65376;BME280;51976;47.332;9.404;2023-02-16T11:43:27;93667.25;;;11.52;34.40
65376;BME280;51976;47.332;9.404;2023-02-16T11:45:59;93671.88;;;10.79;35.30
65376;BME280;51976;47.332;9.404;2023-02-16T11:48:28;93662.16;;;12.06;39.30
65376;BME280;51976;47.332;9.404;2023-02-16T11:51:00;93662.94;;;12.52;39.28
65376;BME280;51976;47.332;9.404;2023-02-16T11:53:29;93651.03;;;12.48;36.88
65376;BME280;51976;47.332;9.404;2023-02-16T11:56:22;93674.84;;;11.70;36.15
65376;BME280;51976;47.332;9.404;2023-02-16T11:59:14;93653.19;;;11.40;30.97
65376;BME280;51976;47.332;9.404;2023-02-16T12:02:31;93651.09;;;11.98;32.00
65376;BME280;51976;47.332;9.404;2023-02-16T12:05:01;93651.13;;;12.03;31.69
65376;BME280;51976;47.332;9.404;2023-02-16T12:07:51;93654.59;;;12.08;32.94
65376;BME280;51976;47.332;9.404;2023-02-16T12:10:27;93648.34;;;12.38;35.13
65376;BME280;51976;47.332;9.404;2023-02-16T12:13:09;93629.72;;;11.61;30.19
65376;BME280;51976;47.332;9.404;2023-02-16T12:15:45;93646.72;;;11.51;30.35
65376;BME280;51976;47.332;9.404;2023-02-16T12:18:37;93644.53;;;12.49;33.91
65376;BME280;51976;47.332;9.404;2023-02-16T12:21:21;93633.81;;;11.99;31.75
65376;BME280;51976;47.332;9.404;2023-02-16T12:24:03;93629.72;;;11.61;29.74
65376;BME280;51976;47.332;9.404;2023-02-16T12:26:51;93637.03;;;11.65;31.14
65376;BME280;51976;47.332;9.404;2023-02-16T12:29:35;93627.25;;;11.49;30.46
65376;BME280;51976;47.332;9.404;2023-02-16T12:32:21;93634.06;;;11.72;30.10
65376;BME280;51976;47.332;9.404;2023-02-16T12:35:17;93607.53;;;11.28;30.57
65376;BME280;51976;47.332;9.404;2023-02-16T12:38:17;93619.50;;;11.83;30.57
65376;BME280;51976;47.332;9.404;2023-02-16T12:41:13;93618.66;;;11.72;29.49
65376;BME280;51976;47.332;9.404;2023-02-16T12:43:49;93623.00;;;11.83;33.35
65376;BME280;51976;47.332;9.404;2023-02-16T12:46:21;93622.75;;;12.00;29.86
65376;BME280;51976;47.332;9.404;2023-02-16T12:48:58;93621.66;;;11.76;30.44
65376;BME280;51976;47.332;9.404;2023-02-16T12:51:29;93610.03;;;11.85;30.62
65376;BME280;51976;47.332;9.404;2023-02-16T12:54:05;93625.94;;;11.62;30.44
65376;BME280;51976;47.332;9.404;2023-02-16T12:56:41;93616.75;;;11.63;29.49
65376;BME280;51976;47.332;9.404;2023-02-16T12:59:27;93606.78;;;11.73;29.09
65376;BME280;51976;47.332;9.404;2023-02-16T13:01:59;93615.69;;;11.64;30.82
65376;BME280;51976;47.332;9.404;2023-02-16T13:04:45;93598.38;;;11.54;30.43
65376;BME280;51976;47.332;9.404;2023-02-16T13:07:17;93607.03;;;11.67;29.67
65376;BME280;51976;47.332;9.404;2023-02-16T13:09:56;93607.03;;;11.51;28.96
65376;BME280;51976;47.332;9.404;2023-02-16T13:12:38;93593.25;;;11.58;29.96
65376;BME280;51976;47.332;9.404;2023-02-16T13:15:12;93595.44;;;11.76;29.73
65376;BME280;51976;47.332;9.404;2023-02-16T13:17:43;93590.03;;;11.46;30.85
65376;BME280;51976;47.332;9.404;2023-02-16T13:20:13;93594.59;;;11.50;29.04
65376;BME280;51976;47.332;9.404;2023-02-16T13:23:16;93597.31;;;11.50;31.74
65376;BME280;51976;47.332;9.404;2023-02-16T13:26:04;93592.16;;;11.34;29.35
65376;BME280;51976;47.332;9.404;2023-02-16T13:29:05;93584.59;;;11.31;29.33
65376;BME280;51976;47.332;9.404;2023-02-16T13:32:13;93574.06;;;11.29;29.17
65376;BME280;51976;47.332;9.404;2023-02-16T13:35:03;93594.88;;;11.49;29.36
65376;BME280;51976;47.332;9.404;2023-02-16T13:37:50;93584.63;;;11.36;30.00
65376;BME280;51976;47.332;9.404;2023-02-16T13:40:55;93581.91;;;11.36;30.12